Terminal Aerodrome Forecast
Issued by NWS

Home | Current Version | Previous Version | Text Only | Print | Product List | Glossary Off
Versions: 1 2 3 4 5 6 7 8 9 10 11 12 13 14 15 16

054
FTUS42 KMHX 040210 AAA
TAFISO
TAF AMD
KISO 040210Z 0402/0424 19010G15KT 5SM -SHRA SCT007 OVC015
     FM040600 20012KT 4SM SHRA OVC007
     FM041200 27008KT 4SM -RA OVC007
     FM041700 02009G15KT 3SM -RA OVC007
      AMD LTD TO CLD VIS AND WIND=

USA.gov is the U.S. government's official web portal to all federal, state and local government web resources and services.